sensor_id;sensor_type;location;lat;lon;timestamp;P1;durP1;ratioP1;P2;durP2;ratioP2
1545;SDS011;766;51.502;9.752;2023-09-19T00:00:39;3.20;;;0.98;;
1545;SDS011;766;51.502;9.752;2023-09-19T00:03:08;1.70;;;1.20;;
1545;SDS011;766;51.502;9.752;2023-09-19T00:05:38;2.03;;;1.02;;
1545;SDS011;766;51.502;9.752;2023-09-19T00:08:09;3.13;;;1.17;;
1545;SDS011;766;51.502;9.752;2023-09-19T00:10:41;2.53;;;1.20;;
1545;SDS011;766;51.502;9.752;2023-09-19T00:13:10;5.22;;;1.20;;
1545;SDS011;766;51.502;9.752;2023-09-19T00:15:42;3.10;;;1.25;;
1545;SDS011;766;51.502;9.752;2023-09-19T00:18:15;5.05;;;1.45;;
1545;SDS011;766;51.502;9.752;2023-09-19T00:20:43;2.92;;;1.40;;
1545;SDS011;766;51.502;9.752;2023-09-19T00:23:14;3.15;;;1.58;;
1545;SDS011;766;51.502;9.752;2023-09-19T00:25:44;2.65;;;1.50;;
1545;SDS011;766;51.502;9.752;2023-09-19T00:28:13;2.05;;;1.33;;
1545;SDS011;766;51.502;9.752;2023-09-19T00:30:42;2.45;;;1.35;;
1545;SDS011;766;51.502;9.752;2023-09-19T00:33:10;2.13;;;1.33;;
1545;SDS011;766;51.502;9.752;2023-09-19T00:35:46;2.08;;;1.48;;
1545;SDS011;766;51.502;9.752;2023-09-19T00:38:15;2.65;;;1.38;;
1545;SDS011;766;51.502;9.752;2023-09-19T00:40:48;2.58;;;1.15;;
1545;SDS011;766;51.502;9.752;2023-09-19T00:43:26;2.97;;;1.58;;
1545;SDS011;766;51.502;9.752;2023-09-19T00:45:56;2.08;;;1.30;;
1545;SDS011;766;51.502;9.752;2023-09-19T00:48:28;1.10;;;1.00;;
1545;SDS011;766;51.502;9.752;2023-09-19T00:50:57;2.50;;;1.23;;
1545;SDS011;766;51.502;9.752;2023-09-19T00:53:27;2.15;;;1.35;;
1545;SDS011;766;51.502;9.752;2023-09-19T00:55:58;3.83;;;1.65;;
1545;SDS011;766;51.502;9.752;2023-09-19T00:58:26;2.13;;;1.17;;
1545;SDS011;766;51.502;9.752;2023-09-19T01:01:00;3.17;;;1.58;;
1545;SDS011;766;51.502;9.752;2023-09-19T01:03:29;2.70;;;1.50;;
1545;SDS011;766;51.502;9.752;2023-09-19T01:06:00;3.17;;;1.88;;
1545;SDS011;766;51.502;9.752;2023-09-19T01:08:29;2.67;;;1.40;;
1545;SDS011;766;51.502;9.752;2023-09-19T01:11:01;2.63;;;1.65;;
1545;SDS011;766;51.502;9.752;2023-09-19T01:13:34;2.80;;;1.48;;
1545;SDS011;766;51.502;9.752;2023-09-19T01:16:07;2.63;;;1.50;;
1545;SDS011;766;51.502;9.752;2023-09-19T01:18:40;3.08;;;1.70;;
1545;SDS011;766;51.502;9.752;2023-09-19T01:21:22;1.70;;;1.30;;
1545;SDS011;766;51.502;9.752;2023-09-19T01:24:02;2.47;;;1.50;;
1545;SDS011;766;51.502;9.752;2023-09-19T01:26:42;3.25;;;1.50;;
1545;SDS011;766;51.502;9.752;2023-09-19T01:29:23;4.03;;;1.77;;
1545;SDS011;766;51.502;9.752;2023-09-19T01:32:01;4.88;;;1.67;;
1545;SDS011;766;51.502;9.752;2023-09-19T01:34:43;2.20;;;1.63;;
1545;SDS011;766;51.502;9.752;2023-09-19T01:37:13;4.38;;;1.60;;
1545;SDS011;766;51.502;9.752;2023-09-19T01:39:46;7.13;;;1.95;;
1545;SDS011;766;51.502;9.752;2023-09-19T01:42:18;1.80;;;1.48;;
1545;SDS011;766;51.502;9.752;2023-09-19T01:44:51;4.45;;;1.60;;
1545;SDS011;766;51.502;9.752;2023-09-19T01:47:28;3.72;;;1.83;;
1545;SDS011;766;51.502;9.752;2023-09-19T01:50:02;4.22;;;1.75;;
1545;SDS011;766;51.502;9.752;2023-09-19T01:52:36;5.78;;;1.80;;
1545;SDS011;766;51.502;9.752;2023-09-19T01:55:09;2.97;;;1.90;;
1545;SDS011;766;51.502;9.752;2023-09-19T01:57:40;3.25;;;1.70;;
1545;SDS011;766;51.502;9.752;2023-09-19T02:00:11;2.50;;;1.80;;
1545;SDS011;766;51.502;9.752;2023-09-19T02:02:42;4.45;;;1.90;;
1545;SDS011;766;51.502;9.752;2023-09-19T02:05:23;6.10;;;2.45;;
1545;SDS011;766;51.502;9.752;2023-09-19T02:07:52;3.00;;;2.40;;
1545;SDS011;766;51.502;9.752;2023-09-19T02:10:20;3.78;;;1.80;;
1545;SDS011;766;51.502;9.752;2023-09-19T02:12:50;5.18;;;1.88;;
1545;SDS011;766;51.502;9.752;2023-09-19T02:15:21;3.25;;;1.58;;
1545;SDS011;766;51.502;9.752;2023-09-19T02:17:54;4.65;;;2.10;;
1545;SDS011;766;51.502;9.752;2023-09-19T02:20:23;2.90;;;1.67;;
1545;SDS011;766;51.502;9.752;2023-09-19T02:22:52;5.60;;;2.08;;
1545;SDS011;766;51.502;9.752;2023-09-19T02:25:21;3.30;;;2.08;;
1545;SDS011;766;51.502;9.752;2023-09-19T02:27:49;2.97;;;1.92;;
1545;SDS011;766;51.502;9.752;2023-09-19T02:30:22;4.65;;;1.92;;
1545;SDS011;766;51.502;9.752;2023-09-19T02:32:52;3.30;;;2.13;;
1545;SDS011;766;51.502;9.752;2023-09-19T02:35:22;4.03;;;2.38;;
1545;SDS011;766;51.502;9.752;2023-09-19T02:37:52;6.38;;;2.08;;
1545;SDS011;766;51.502;9.752;2023-09-19T02:40:21;3.03;;;2.00;;
1545;SDS011;766;51.502;9.752;2023-09-19T02:42:53;4.60;;;1.80;;
1545;SDS011;766;51.502;9.752;2023-09-19T02:45:22;5.05;;;1.90;;
1545;SDS011;766;51.502;9.752;2023-09-19T02:47:51;2.53;;;1.77;;
1545;SDS011;766;51.502;9.752;2023-09-19T02:50:22;1.77;;;1.67;;
1545;SDS011;766;51.502;9.752;2023-09-19T02:52:51;4.07;;;2.00;;
1545;SDS011;766;51.502;9.752;2023-09-19T02:55:20;3.38;;;2.10;;
1545;SDS011;766;51.502;9.752;2023-09-19T02:57:49;5.45;;;2.38;;
1545;SDS011;766;51.502;9.752;2023-09-19T03:00:18;3.75;;;2.00;;
1545;SDS011;766;51.502;9.752;2023-09-19T03:02:49;6.70;;;2.38;;
1545;SDS011;766;51.502;9.752;2023-09-19T03:05:18;3.45;;;2.17;;
1545;SDS011;766;51.502;9.752;2023-09-19T03:07:48;5.00;;;2.35;;
1545;SDS011;766;51.502;9.752;2023-09-19T03:10:18;4.35;;;2.10;;
1545;SDS011;766;51.502;9.752;2023-09-19T03:12:47;6.68;;;2.20;;
1545;SDS011;766;51.502;9.752;2023-09-19T03:15:16;2.67;;;2.25;;
1545;SDS011;766;51.502;9.752;2023-09-19T03:17:48;4.90;;;2.10;;
1545;SDS011;766;51.502;9.752;2023-09-19T03:20:18;2.03;;;1.83;;
1545;SDS011;766;51.502;9.752;2023-09-19T03:22:49;5.60;;;2.35;;
1545;SDS011;766;51.502;9.752;2023-09-19T03:25:18;4.28;;;2.08;;
1545;SDS011;766;51.502;9.752;2023-09-19T03:27:49;4.22;;;2.10;;
1545;SDS011;766;51.502;9.752;2023-09-19T03:30:18;6.03;;;1.95;;
1545;SDS011;766;51.502;9.752;2023-09-19T03:32:50;6.03;;;2.28;;
1545;SDS011;766;51.502;9.752;2023-09-19T03:35:19;3.65;;;2.10;;
1545;SDS011;766;51.502;9.752;2023-09-19T03:37:49;5.20;;;2.10;;
1545;SDS011;766;51.502;9.752;2023-09-19T03:40:19;2.83;;;1.90;;
1545;SDS011;766;51.502;9.752;2023-09-19T03:42:48;4.35;;;2.20;;
1545;SDS011;766;51.502;9.752;2023-09-19T03:45:20;3.72;;;2.28;;
1545;SDS011;766;51.502;9.752;2023-09-19T03:47:50;7.00;;;2.63;;
1545;SDS011;766;51.502;9.752;2023-09-19T03:50:21;3.83;;;1.80;;
1545;SDS011;766;51.502;9.752;2023-09-19T03:52:56;4.93;;;2.55;;
1545;SDS011;766;51.502;9.752;2023-09-19T03:55:31;5.20;;;2.50;;
1545;SDS011;766;51.502;9.752;2023-09-19T03:58:08;2.90;;;2.25;;
1545;SDS011;766;51.502;9.752;2023-09-19T04:00:36;5.32;;;2.75;;
1545;SDS011;766;51.502;9.752;2023-09-19T04:03:05;6.22;;;2.53;;
1545;SDS011;766;51.502;9.752;2023-09-19T04:05:34;4.85;;;2.50;;
1545;SDS011;766;51.502;9.752;2023-09-19T04:08:07;4.97;;;2.50;;
1545;SDS011;766;51.502;9.752;2023-09-19T04:10:38;5.18;;;2.63;;
1545;SDS011;766;51.502;9.752;2023-09-19T04:13:07;4.22;;;2.38;;
1545;SDS011;766;51.502;9.752;2023-09-19T04:15:36;5.65;;;2.53;;
1545;SDS011;766;51.502;9.752;2023-09-19T04:18:06;6.10;;;3.00;;
1545;SDS011;766;51.502;9.752;2023-09-19T04:20:35;4.05;;;2.42;;
1545;SDS011;766;51.502;9.752;2023-09-19T04:23:08;3.42;;;2.30;;
1545;SDS011;766;51.502;9.752;2023-09-19T04:25:40;4.75;;;2.25;;
1545;SDS011;766;51.502;9.752;2023-09-19T04:28:09;7.25;;;2.42;;
1545;SDS011;766;51.502;9.752;2023-09-19T04:30:38;7.78;;;2.42;;
1545;SDS011;766;51.502;9.752;2023-09-19T04:33:12;4.93;;;2.65;;
1545;SDS011;766;51.502;9.752;2023-09-19T04:35:41;4.18;;;2.30;;
1545;SDS011;766;51.502;9.752;2023-09-19T04:38:11;6.35;;;2.65;;
1545;SDS011;766;51.502;9.752;2023-09-19T04:40:41;8.70;;;2.30;;
1545;SDS011;766;51.502;9.752;2023-09-19T04:43:10;5.80;;;2.58;;
1545;SDS011;766;51.502;9.752;2023-09-19T04:45:38;6.10;;;2.42;;
1545;SDS011;766;51.502;9.752;2023-09-19T04:48:10;5.07;;;2.33;;
1545;SDS011;766;51.502;9.752;2023-09-19T04:50:42;6.03;;;2.40;;
1545;SDS011;766;51.502;9.752;2023-09-19T04:53:13;6.72;;;2.63;;
1545;SDS011;766;51.502;9.752;2023-09-19T04:55:41;5.80;;;2.20;;
1545;SDS011;766;51.502;9.752;2023-09-19T04:58:16;8.23;;;2.55;;
1545;SDS011;766;51.502;9.752;2023-09-19T05:00:46;4.25;;;2.17;;
1545;SDS011;766;51.502;9.752;2023-09-19T05:03:14;4.88;;;2.20;;
1545;SDS011;766;51.502;9.752;2023-09-19T05:05:44;4.07;;;2.05;;
1545;SDS011;766;51.502;9.752;2023-09-19T05:08:16;5.82;;;2.22;;
1545;SDS011;766;51.502;9.752;2023-09-19T05:10:51;9.52;;;2.80;;
1545;SDS011;766;51.502;9.752;2023-09-19T05:13:20;10.07;;;3.03;;
1545;SDS011;766;51.502;9.752;2023-09-19T05:15:50;6.72;;;2.15;;
1545;SDS011;766;51.502;9.752;2023-09-19T05:18:19;5.25;;;2.05;;
1545;SDS011;766;51.502;9.752;2023-09-19T05:20:48;4.60;;;2.08;;
1545;SDS011;766;51.502;9.752;2023-09-19T05:23:21;9.05;;;2.25;;
1545;SDS011;766;51.502;9.752;2023-09-19T05:25:49;7.30;;;2.10;;
1545;SDS011;766;51.502;9.752;2023-09-19T05:28:19;5.05;;;1.88;;
1545;SDS011;766;51.502;9.752;2023-09-19T05:30:51;5.05;;;1.50;;
1545;SDS011;766;51.502;9.752;2023-09-19T05:33:51;4.97;;;2.42;;
1545;SDS011;766;51.502;9.752;2023-09-19T05:36:21;4.95;;;2.15;;
1545;SDS011;766;51.502;9.752;2023-09-19T05:38:51;10.00;;;1.88;;
1545;SDS011;766;51.502;9.752;2023-09-19T05:41:20;7.35;;;1.80;;
1545;SDS011;766;51.502;9.752;2023-09-19T05:43:49;6.47;;;1.90;;
1545;SDS011;766;51.502;9.752;2023-09-19T05:46:17;6.85;;;2.00;;
1545;SDS011;766;51.502;9.752;2023-09-19T05:48:56;4.90;;;2.10;;
1545;SDS011;766;51.502;9.752;2023-09-19T05:51:25;4.03;;;2.10;;
1545;SDS011;766;51.502;9.752;2023-09-19T05:53:56;5.30;;;1.95;;
1545;SDS011;766;51.502;9.752;2023-09-19T05:56:24;5.65;;;1.77;;
1545;SDS011;766;51.502;9.752;2023-09-19T05:58:53;8.05;;;2.25;;
1545;SDS011;766;51.502;9.752;2023-09-19T06:01:22;6.03;;;2.05;;
1545;SDS011;766;51.502;9.752;2023-09-19T06:03:50;5.68;;;1.73;;
1545;SDS011;766;51.502;9.752;2023-09-19T06:06:19;9.18;;;1.83;;
1545;SDS011;766;51.502;9.752;2023-09-19T06:08:50;7.72;;;2.78;;
1545;SDS011;766;51.502;9.752;2023-09-19T06:11:20;6.88;;;1.90;;
1545;SDS011;766;51.502;9.752;2023-09-19T06:13:53;5.55;;;2.28;;
1545;SDS011;766;51.502;9.752;2023-09-19T06:16:22;3.80;;;2.03;;
1545;SDS011;766;51.502;9.752;2023-09-19T06:18:52;4.88;;;1.80;;
1545;SDS011;766;51.502;9.752;2023-09-19T06:21:22;3.63;;;1.90;;
1545;SDS011;766;51.502;9.752;2023-09-19T06:23:50;4.05;;;1.85;;
1545;SDS011;766;51.502;9.752;2023-09-19T06:26:20;4.47;;;2.10;;
1545;SDS011;766;51.502;9.752;2023-09-19T06:28:49;5.22;;;2.50;;
1545;SDS011;766;51.502;9.752;2023-09-19T06:31:19;6.07;;;1.80;;
1545;SDS011;766;51.502;9.752;2023-09-19T06:33:49;3.60;;;2.03;;
1545;SDS011;766;51.502;9.752;2023-09-19T06:36:17;7.07;;;2.38;;
1545;SDS011;766;51.502;9.752;2023-09-19T06:38:46;8.07;;;2.28;;
1545;SDS011;766;51.502;9.752;2023-09-19T06:41:17;2.97;;;1.67;;
1545;SDS011;766;51.502;9.752;2023-09-19T06:43:49;5.32;;;1.95;;
1545;SDS011;766;51.502;9.752;2023-09-19T06:46:20;5.65;;;2.22;;
1545;SDS011;766;51.502;9.752;2023-09-19T06:48:48;7.32;;;1.90;;
1545;SDS011;766;51.502;9.752;2023-09-19T06:51:18;6.15;;;2.10;;
1545;SDS011;766;51.502;9.752;2023-09-19T06:53:47;4.97;;;2.08;;
1545;SDS011;766;51.502;9.752;2023-09-19T06:56:15;10.50;;;2.10;;
1545;SDS011;766;51.502;9.752;2023-09-19T06:58:44;4.60;;;1.80;;
1545;SDS011;766;51.502;9.752;2023-09-19T07:01:13;5.60;;;2.40;;
1545;SDS011;766;51.502;9.752;2023-09-19T07:03:42;6.22;;;1.67;;
1545;SDS011;766;51.502;9.752;2023-09-19T07:06:12;5.13;;;2.20;;
1545;SDS011;766;51.502;9.752;2023-09-19T07:08:40;7.53;;;2.50;;
1545;SDS011;766;51.502;9.752;2023-09-19T07:11:10;8.73;;;1.98;;
1545;SDS011;766;51.502;9.752;2023-09-19T07:13:40;5.80;;;2.17;;
1545;SDS011;766;51.502;9.752;2023-09-19T07:16:09;9.48;;;2.70;;
1545;SDS011;766;51.502;9.752;2023-09-19T07:18:55;10.77;;;2.80;;
1545;SDS011;766;51.502;9.752;2023-09-19T07:21:23;7.15;;;2.28;;
1545;SDS011;766;51.502;9.752;2023-09-19T07:23:52;8.38;;;3.13;;
1545;SDS011;766;51.502;9.752;2023-09-19T07:26:21;7.90;;;2.40;;
1545;SDS011;766;51.502;9.752;2023-09-19T07:28:49;7.95;;;2.25;;
1545;SDS011;766;51.502;9.752;2023-09-19T07:31:17;7.03;;;2.15;;
1545;SDS011;766;51.502;9.752;2023-09-19T07:33:46;8.25;;;2.28;;
1545;SDS011;766;51.502;9.752;2023-09-19T07:36:16;6.47;;;1.88;;
1545;SDS011;766;51.502;9.752;2023-09-19T07:38:44;9.15;;;2.58;;
1545;SDS011;766;51.502;9.752;2023-09-19T07:41:14;7.22;;;2.30;;
1545;SDS011;766;51.502;9.752;2023-09-19T07:43:42;6.13;;;2.15;;
1545;SDS011;766;51.502;9.752;2023-09-19T07:46:12;7.72;;;2.65;;
1545;SDS011;766;51.502;9.752;2023-09-19T07:48:41;12.63;;;2.80;;
1545;SDS011;766;51.502;9.752;2023-09-19T07:51:16;7.80;;;2.30;;
1545;SDS011;766;51.502;9.752;2023-09-19T07:53:45;8.90;;;2.42;;
1545;SDS011;766;51.502;9.752;2023-09-19T07:56:14;6.40;;;2.65;;
1545;SDS011;766;51.502;9.752;2023-09-19T07:58:44;6.70;;;2.28;;
1545;SDS011;766;51.502;9.752;2023-09-19T08:01:13;9.88;;;2.05;;
1545;SDS011;766;51.502;9.752;2023-09-19T08:03:43;11.32;;;2.65;;
1545;SDS011;766;51.502;9.752;2023-09-19T08:06:11;6.40;;;2.53;;
1545;SDS011;766;51.502;9.752;2023-09-19T08:08:42;6.72;;;2.20;;
1545;SDS011;766;51.502;9.752;2023-09-19T08:11:11;10.43;;;2.63;;
1545;SDS011;766;51.502;9.752;2023-09-19T08:13:41;6.55;;;2.42;;
1545;SDS011;766;51.502;9.752;2023-09-19T08:16:12;7.43;;;2.40;;
1545;SDS011;766;51.502;9.752;2023-09-19T08:18:41;5.88;;;2.40;;
1545;SDS011;766;51.502;9.752;2023-09-19T08:21:11;7.70;;;3.42;;
1545;SDS011;766;51.502;9.752;2023-09-19T08:23:44;8.70;;;2.53;;
1545;SDS011;766;51.502;9.752;2023-09-19T08:26:13;7.35;;;2.53;;
1545;SDS011;766;51.502;9.752;2023-09-19T08:28:41;8.05;;;2.15;;
1545;SDS011;766;51.502;9.752;2023-09-19T08:31:10;9.63;;;2.42;;
1545;SDS011;766;51.502;9.752;2023-09-19T08:33:39;8.88;;;3.17;;
1545;SDS011;766;51.502;9.752;2023-09-19T08:36:08;10.60;;;2.63;;
1545;SDS011;766;51.502;9.752;2023-09-19T08:38:37;7.35;;;2.38;;
1545;SDS011;766;51.502;9.752;2023-09-19T08:41:07;11.15;;;3.40;;
1545;SDS011;766;51.502;9.752;2023-09-19T08:43:39;7.80;;;2.42;;
1545;SDS011;766;51.502;9.752;2023-09-19T08:46:10;9.70;;;2.25;;
1545;SDS011;766;51.502;9.752;2023-09-19T08:48:43;8.68;;;2.65;;
1545;SDS011;766;51.502;9.752;2023-09-19T08:51:17;8.77;;;2.20;;
1545;SDS011;766;51.502;9.752;2023-09-19T08:53:47;4.40;;;1.55;;
1545;SDS011;766;51.502;9.752;2023-09-19T08:56:19;7.15;;;2.28;;
1545;SDS011;766;51.502;9.752;2023-09-19T08:58:50;10.43;;;2.55;;
1545;SDS011;766;51.502;9.752;2023-09-19T09:01:20;6.35;;;2.22;;
1545;SDS011;766;51.502;9.752;2023-09-19T09:03:52;7.85;;;2.05;;
1545;SDS011;766;51.502;9.752;2023-09-19T09:06:21;7.25;;;2.15;;
1545;SDS011;766;51.502;9.752;2023-09-19T09:08:50;8.10;;;2.25;;
1545;SDS011;766;51.502;9.752;2023-09-19T09:11:20;13.57;;;2.85;;
1545;SDS011;766;51.502;9.752;2023-09-19T09:13:49;6.43;;;1.80;;
1545;SDS011;766;51.502;9.752;2023-09-19T09:16:18;10.32;;;2.35;;
1545;SDS011;766;51.502;9.752;2023-09-19T09:18:47;4.78;;;2.20;;
1545;SDS011;766;51.502;9.752;2023-09-19T09:21:20;7.43;;;2.35;;
1545;SDS011;766;51.502;9.752;2023-09-19T09:23:49;8.45;;;2.30;;
1545;SDS011;766;51.502;9.752;2023-09-19T09:26:30;6.80;;;2.20;;
1545;SDS011;766;51.502;9.752;2023-09-19T09:29:10;11.40;;;2.42;;
1545;SDS011;766;51.502;9.752;2023-09-19T09:31:45;6.57;;;2.05;;
1545;SDS011;766;51.502;9.752;2023-09-19T09:34:15;10.18;;;2.28;;
1545;SDS011;766;51.502;9.752;2023-09-19T09:36:44;9.90;;;2.65;;
1545;SDS011;766;51.502;9.752;2023-09-19T09:39:29;7.07;;;2.60;;
1545;SDS011;766;51.502;9.752;2023-09-19T09:42:00;6.88;;;2.42;;
1545;SDS011;766;51.502;9.752;2023-09-19T09:44:33;8.82;;;2.40;;
1545;SDS011;766;51.502;9.752;2023-09-19T09:47:02;5.63;;;2.10;;
1545;SDS011;766;51.502;9.752;2023-09-19T09:49:49;7.72;;;2.33;;
1545;SDS011;766;51.502;9.752;2023-09-19T09:52:44;11.13;;;2.55;;
1545;SDS011;766;51.502;9.752;2023-09-19T09:55:12;6.97;;;2.15;;
1545;SDS011;766;51.502;9.752;2023-09-19T09:57:42;9.07;;;2.72;;
1545;SDS011;766;51.502;9.752;2023-09-19T10:00:11;7.45;;;2.30;;
1545;SDS011;766;51.502;9.752;2023-09-19T10:02:47;10.85;;;2.40;;
1545;SDS011;766;51.502;9.752;2023-09-19T10:05:16;9.68;;;2.42;;
1545;SDS011;766;51.502;9.752;2023-09-19T10:07:55;7.95;;;2.08;;
1545;SDS011;766;51.502;9.752;2023-09-19T10:10:31;7.65;;;2.70;;
1545;SDS011;766;51.502;9.752;2023-09-19T10:13:21;8.88;;;2.30;;
1545;SDS011;766;51.502;9.752;2023-09-19T10:15:53;7.28;;;2.17;;
1545;SDS011;766;51.502;9.752;2023-09-19T10:18:24;7.22;;;2.53;;
1545;SDS011;766;51.502;9.752;2023-09-19T10:20:55;8.13;;;2.40;;
1545;SDS011;766;51.502;9.752;2023-09-19T10:23:24;9.23;;;2.50;;
1545;SDS011;766;51.502;9.752;2023-09-19T10:25:57;11.15;;;2.70;;
1545;SDS011;766;51.502;9.752;2023-09-19T10:28:30;7.60;;;2.53;;
1545;SDS011;766;51.502;9.752;2023-09-19T10:30:59;7.00;;;2.17;;
1545;SDS011;766;51.502;9.752;2023-09-19T10:33:29;13.10;;;2.33;;
1545;SDS011;766;51.502;9.752;2023-09-19T10:36:04;7.32;;;2.40;;
1545;SDS011;766;51.502;9.752;2023-09-19T10:38:33;6.03;;;2.30;;
1545;SDS011;766;51.502;9.752;2023-09-19T10:41:07;4.22;;;1.85;;
1545;SDS011;766;51.502;9.752;2023-09-19T10:43:39;3.83;;;1.63;;
1545;SDS011;766;51.502;9.752;2023-09-19T10:46:11;4.68;;;2.05;;
1545;SDS011;766;51.502;9.752;2023-09-19T10:48:40;6.07;;;2.40;;
1545;SDS011;766;51.502;9.752;2023-09-19T10:51:11;6.13;;;2.38;;
1545;SDS011;766;51.502;9.752;2023-09-19T10:53:45;6.82;;;2.17;;
1545;SDS011;766;51.502;9.752;2023-09-19T10:56:18;8.25;;;2.22;;
1545;SDS011;766;51.502;9.752;2023-09-19T10:58:53;5.32;;;2.00;;
1545;SDS011;766;51.502;9.752;2023-09-19T11:01:43;6.63;;;2.25;;
1545;SDS011;766;51.502;9.752;2023-09-19T11:04:20;7.45;;;2.63;;
1545;SDS011;766;51.502;9.752;2023-09-19T11:07:01;8.52;;;2.92;;
1545;SDS011;766;51.502;9.752;2023-09-19T11:09:43;5.78;;;2.00;;
1545;SDS011;766;51.502;9.752;2023-09-19T11:18:53;3.97;;;2.05;;
1545;SDS011;766;51.502;9.752;2023-09-19T11:24:27;3.90;;;2.05;;
1545;SDS011;766;51.502;9.752;2023-09-19T11:27:10;5.53;;;2.13;;
1545;SDS011;766;51.502;9.752;2023-09-19T11:29:40;6.40;;;2.13;;
1545;SDS011;766;51.502;9.752;2023-09-19T11:32:09;6.38;;;2.22;;
1545;SDS011;766;51.502;9.752;2023-09-19T11:34:39;4.82;;;2.08;;
1545;SDS011;766;51.502;9.752;2023-09-19T11:40:36;7.65;;;2.38;;
1545;SDS011;766;51.502;9.752;2023-09-19T11:46:03;7.38;;;2.42;;
1545;SDS011;766;51.502;9.752;2023-09-19T11:48:35;6.18;;;2.30;;
1545;SDS011;766;51.502;9.752;2023-09-19T11:51:13;7.18;;;2.13;;
1545;SDS011;766;51.502;9.752;2023-09-19T11:53:50;5.15;;;2.08;;
1545;SDS011;766;51.502;9.752;2023-09-19T11:56:20;6.22;;;2.17;;
1545;SDS011;766;51.502;9.752;2023-09-19T11:58:51;4.78;;;1.95;;
1545;SDS011;766;51.502;9.752;2023-09-19T12:01:22;6.75;;;2.88;;
1545;SDS011;766;51.502;9.752;2023-09-19T12:03:55;7.90;;;2.75;;
1545;SDS011;766;51.502;9.752;2023-09-19T12:06:27;3.80;;;2.15;;
1545;SDS011;766;51.502;9.752;2023-09-19T12:08:58;9.27;;;2.63;;
1545;SDS011;766;51.502;9.752;2023-09-19T12:11:32;4.85;;;2.10;;
1545;SDS011;766;51.502;9.752;2023-09-19T12:14:09;6.15;;;2.03;;
1545;SDS011;766;51.502;9.752;2023-09-19T12:16:37;5.22;;;2.67;;
1545;SDS011;766;51.502;9.752;2023-09-19T12:19:18;5.28;;;2.20;;
1545;SDS011;766;51.502;9.752;2023-09-19T12:21:59;10.65;;;2.42;;
1545;SDS011;766;51.502;9.752;2023-09-19T12:24:32;5.70;;;2.50;;
1545;SDS011;766;51.502;9.752;2023-09-19T12:27:05;6.45;;;2.40;;
1545;SDS011;766;51.502;9.752;2023-09-19T12:29:42;5.55;;;2.20;;
1545;SDS011;766;51.502;9.752;2023-09-19T12:32:11;5.97;;;2.45;;
1545;SDS011;766;51.502;9.752;2023-09-19T12:34:41;9.20;;;2.33;;
1545;SDS011;766;51.502;9.752;2023-09-19T12:37:12;3.88;;;2.00;;
1545;SDS011;766;51.502;9.752;2023-09-19T12:39:48;6.70;;;2.35;;
1545;SDS011;766;51.502;9.752;2023-09-19T12:42:19;8.23;;;2.58;;
1545;SDS011;766;51.502;9.752;2023-09-19T12:44:49;3.67;;;1.75;;
1545;SDS011;766;51.502;9.752;2023-09-19T12:47:22;5.45;;;2.53;;
1545;SDS011;766;51.502;9.752;2023-09-19T12:50:04;5.40;;;2.20;;
1545;SDS011;766;51.502;9.752;2023-09-19T12:52:41;8.27;;;2.45;;
1545;SDS011;766;51.502;9.752;2023-09-19T12:55:21;7.30;;;2.63;;
1545;SDS011;766;51.502;9.752;2023-09-19T12:57:57;7.57;;;2.70;;
1545;SDS011;766;51.502;9.752;2023-09-19T13:00:32;9.70;;;2.90;;
1545;SDS011;766;51.502;9.752;2023-09-19T13:03:15;5.45;;;2.30;;
1545;SDS011;766;51.502;9.752;2023-09-19T13:05:49;8.30;;;2.35;;
1545;SDS011;766;51.502;9.752;2023-09-19T13:08:20;8.05;;;2.28;;
1545;SDS011;766;51.502;9.752;2023-09-19T13:11:00;7.78;;;2.17;;
1545;SDS011;766;51.502;9.752;2023-09-19T13:13:37;6.18;;;2.42;;
1545;SDS011;766;51.502;9.752;2023-09-19T13:16:06;6.10;;;2.10;;
1545;SDS011;766;51.502;9.752;2023-09-19T13:18:45;4.65;;;2.00;;
1545;SDS011;766;51.502;9.752;2023-09-19T13:21:17;5.15;;;2.00;;
1545;SDS011;766;51.502;9.752;2023-09-19T13:24:17;7.00;;;2.40;;
1545;SDS011;766;51.502;9.752;2023-09-19T13:26:46;5.22;;;1.95;;
1545;SDS011;766;51.502;9.752;2023-09-19T13:29:14;6.38;;;2.35;;
1545;SDS011;766;51.502;9.752;2023-09-19T13:31:47;7.40;;;2.30;;
1545;SDS011;766;51.502;9.752;2023-09-19T13:34:16;5.25;;;1.98;;
1545;SDS011;766;51.502;9.752;2023-09-19T13:36:44;7.55;;;2.25;;
1545;SDS011;766;51.502;9.752;2023-09-19T13:39:16;3.70;;;1.90;;
1545;SDS011;766;51.502;9.752;2023-09-19T13:41:44;7.03;;;2.15;;
1545;SDS011;766;51.502;9.752;2023-09-19T13:44:14;5.07;;;2.30;;
1545;SDS011;766;51.502;9.752;2023-09-19T13:46:44;6.93;;;1.98;;
1545;SDS011;766;51.502;9.752;2023-09-19T13:49:13;6.80;;;2.40;;
1545;SDS011;766;51.502;9.752;2023-09-19T13:51:42;4.80;;;1.70;;
1545;SDS011;766;51.502;9.752;2023-09-19T13:54:11;8.30;;;2.13;;
1545;SDS011;766;51.502;9.752;2023-09-19T13:56:42;8.77;;;2.90;;
1545;SDS011;766;51.502;9.752;2023-09-19T13:59:11;4.88;;;1.88;;
1545;SDS011;766;51.502;9.752;2023-09-19T14:01:39;6.38;;;2.00;;
1545;SDS011;766;51.502;9.752;2023-09-19T14:04:08;9.13;;;2.13;;
1545;SDS011;766;51.502;9.752;2023-09-19T14:06:41;6.35;;;2.28;;
1545;SDS011;766;51.502;9.752;2023-09-19T14:09:10;6.00;;;1.95;;
1545;SDS011;766;51.502;9.752;2023-09-19T14:11:51;6.20;;;1.88;;
1545;SDS011;766;51.502;9.752;2023-09-19T14:14:20;5.93;;;2.20;;
1545;SDS011;766;51.502;9.752;2023-09-19T14:16:48;5.93;;;2.08;;
1545;SDS011;766;51.502;9.752;2023-09-19T14:19:16;6.78;;;1.92;;
1545;SDS011;766;51.502;9.752;2023-09-19T14:21:44;6.00;;;1.88;;
1545;SDS011;766;51.502;9.752;2023-09-19T14:24:16;6.07;;;1.50;;
1545;SDS011;766;51.502;9.752;2023-09-19T14:26:47;8.68;;;1.80;;
1545;SDS011;766;51.502;9.752;2023-09-19T14:29:16;4.18;;;1.98;;
1545;SDS011;766;51.502;9.752;2023-09-19T14:31:46;3.65;;;2.00;;
1545;SDS011;766;51.502;9.752;2023-09-19T14:34:17;7.68;;;2.38;;
1545;SDS011;766;51.502;9.752;2023-09-19T14:36:46;6.07;;;2.38;;
1545;SDS011;766;51.502;9.752;2023-09-19T14:39:15;7.18;;;2.35;;
1545;SDS011;766;51.502;9.752;2023-09-19T14:41:43;9.07;;;2.00;;
1545;SDS011;766;51.502;9.752;2023-09-19T14:44:13;6.28;;;2.45;;
1545;SDS011;766;51.502;9.752;2023-09-19T14:46:42;7.93;;;2.10;;
1545;SDS011;766;51.502;9.752;2023-09-19T14:49:11;5.70;;;1.83;;
1545;SDS011;766;51.502;9.752;2023-09-19T14:51:43;6.55;;;1.88;;
1545;SDS011;766;51.502;9.752;2023-09-19T14:54:11;4.63;;;2.00;;
1545;SDS011;766;51.502;9.752;2023-09-19T14:56:39;6.45;;;2.53;;
1545;SDS011;766;51.502;9.752;2023-09-19T14:59:12;5.82;;;1.88;;
1545;SDS011;766;51.502;9.752;2023-09-19T15:01:42;6.55;;;1.88;;
1545;SDS011;766;51.502;9.752;2023-09-19T15:04:11;4.88;;;2.15;;
1545;SDS011;766;51.502;9.752;2023-09-19T15:06:39;7.43;;;2.30;;
1545;SDS011;766;51.502;9.752;2023-09-19T15:09:07;3.92;;;1.90;;
1545;SDS011;766;51.502;9.752;2023-09-19T15:11:36;6.28;;;1.90;;
1545;SDS011;766;51.502;9.752;2023-09-19T15:14:04;6.95;;;2.00;;
1545;SDS011;766;51.502;9.752;2023-09-19T15:16:37;5.15;;;2.20;;
1545;SDS011;766;51.502;9.752;2023-09-19T15:19:07;6.70;;;2.10;;
1545;SDS011;766;51.502;9.752;2023-09-19T15:21:36;6.97;;;1.88;;
1545;SDS011;766;51.502;9.752;2023-09-19T15:24:05;9.85;;;2.10;;
1545;SDS011;766;51.502;9.752;2023-09-19T15:26:36;8.27;;;2.88;;
1545;SDS011;766;51.502;9.752;2023-09-19T15:29:06;8.20;;;2.63;;
1545;SDS011;766;51.502;9.752;2023-09-19T15:31:37;6.95;;;2.50;;
1545;SDS011;766;51.502;9.752;2023-09-19T15:34:05;4.50;;;2.00;;
1545;SDS011;766;51.502;9.752;2023-09-19T15:36:34;7.60;;;2.55;;
1545;SDS011;766;51.502;9.752;2023-09-19T15:39:02;6.97;;;2.50;;
1545;SDS011;766;51.502;9.752;2023-09-19T15:41:33;7.47;;;2.85;;
1545;SDS011;766;51.502;9.752;2023-09-19T15:44:04;5.82;;;2.25;;
1545;SDS011;766;51.502;9.752;2023-09-19T15:46:40;10.45;;;2.47;;
1545;SDS011;766;51.502;9.752;2023-09-19T15:49:09;5.35;;;2.25;;
1545;SDS011;766;51.502;9.752;2023-09-19T15:51:37;7.78;;;2.67;;
1545;SDS011;766;51.502;9.752;2023-09-19T15:54:07;6.68;;;2.45;;
1545;SDS011;766;51.502;9.752;2023-09-19T15:56:37;7.78;;;2.53;;
1545;SDS011;766;51.502;9.752;2023-09-19T15:59:07;6.55;;;2.33;;
1545;SDS011;766;51.502;9.752;2023-09-19T16:01:40;2.78;;;1.88;;
1545;SDS011;766;51.502;9.752;2023-09-19T16:04:10;6.38;;;2.50;;
1545;SDS011;766;51.502;9.752;2023-09-19T16:06:40;6.43;;;2.45;;
1545;SDS011;766;51.502;9.752;2023-09-19T16:09:08;8.55;;;2.20;;
1545;SDS011;766;51.502;9.752;2023-09-19T16:11:37;6.10;;;2.05;;